• Join FlightAware (Why Join?)
  • Login
  • US Flag 
01:27AM EDT


 

Airport Tracker/Info


-or-


 

Live Flight TrackerFlight Track Log ✈ KAL61 ✈ 14-Jun-2013 ✈ KLAX - SBGR / GRU

Flight Track Log - Related Links

Times and Time Zones

All times are in EDT time to prevent confusion due to time zone crossing. See the KAL61 flight status page for this flight to view local times or setup timezone preferences in your user account.

Time Position Orientation Groundspeed Altitude Reporting Facility
EDT Latitude Longitude Course Direction KTS MPH feet Rate Location/Type
10:20PM 33.9333 -118.4833 227° Southwest 208 239 2,400  Level Southern California TRACON
10:21PM 33.8853 -118.5444 227° Southwest 222 255 3,700 1,200 Climbing Los Angeles Center
10:22PM 33.8125 -118.5617 191° South 272 313 5,100 1,500 Climbing Los Angeles Center
10:23PM 33.7292 -118.5489 173° South 304 350 6,800 1,740 Climbing Los Angeles Center
10:24PM 33.6694 -118.4767 135° Southeast 322 371 8,700 1,800 Climbing Los Angeles Center
10:25PM 33.6428 -118.3731 107° East 335 386 10,500 2,040 Climbing Los Angeles Center
10:26PM 33.6269 -118.2381 98° East 352 405 12,900 2,220 Climbing Los Angeles Center
10:27PM 33.6264 -118.1197 90° East 361 415 15,100 1,980 Climbing Los Angeles Center
10:28PM 33.6061 -118.0000 101° East 371 427 17,000 1,800 Climbing Los Angeles Center
10:29PM 33.5683 -117.8842 111° Southeast 375 432 18,900 1,680 Climbing Los Angeles Center
10:30PM 33.5286 -117.7636 112° Southeast 387 445 20,500 1,500 Climbing Los Angeles Center
10:31PM 33.4797 -117.6111 111° Southeast 411 473 22,100 1,380 Climbing Los Angeles Center
10:32PM 33.4361 -117.4786 111° Southeast 427 491 23,400 1,140 Climbing Los Angeles Center
10:34PM 33.3903 -117.3403 112° Southeast 446 513 24,500 1,080 Climbing Los Angeles Center
10:35PM 33.3375 -117.2017 114° Southeast 461 531 25,700 1,080 Climbing Los Angeles Center
10:36PM 33.2619 -117.0547 122° Southeast 472 543 27,000 1,140 Climbing Los Angeles Center
10:37PM 33.1847 -116.8842 118° Southeast 485 558 28,400 1,200 Climbing Los Angeles Center
10:38PM 33.1175 -116.7422 119° Southeast 491 565 29,600 1,020 Climbing Los Angeles Center
10:39PM 33.0483 -116.5947 119° Southeast 507 583 30,600 660 Climbing Los Angeles Center
10:40PM 32.9683 -116.4344 121° Southeast 513 590 31,000 180 Climbing Los Angeles Center
10:41PM 32.8981 -116.2844 119° Southeast 525 604 31,000 -60 Level Los Angeles Center
10:42PM 32.8256 -116.1425 121° Southeast 516 594 30,900 -60 Descending Los Angeles Center
10:43PM 32.7531 -115.9964 121° Southeast 512 589 30,900  Level Los Angeles Center
10:44PM 32.6672 -115.8217 120° Southeast 510 587 31,000  Climbing Los Angeles Center
10:46PM 32.5233 -115.5356 121° Southeast 506 582 31,000  Level Los Angeles Center
10:48PM 32.4212 -115.3476 123° Southeast  Level FlightAware Approximate
10:55PM 31.9065 -114.4141 123° Southeast  Level FlightAware Approximate
10:56PM 31.8321 -114.2812 125° Southeast  Level FlightAware Approximate
10:57PM 31.7552 -114.1510 125° Southeast  Level FlightAware Approximate
10:58PM 31.6782 -114.0211 125° Southeast  Level FlightAware Approximate
10:59PM 31.6010 -113.8914 125° Southeast  Level FlightAware Approximate
11:00PM 31.5237 -113.7619 125° Southeast  Level FlightAware Approximate
11:01PM 31.4463 -113.6326 125° Southeast  Level FlightAware Approximate
11:02PM 31.3688 -113.5035 125° Southeast  Level FlightAware Approximate
11:03PM 31.3002 -113.3677 120° Southeast  Level FlightAware Approximate
11:04PM 31.2318 -113.2320 120° Southeast  Level FlightAware Approximate
11:05PM 31.1632 -113.0964 121° Southeast  Level FlightAware Approximate
11:06PM 31.0945 -112.9611 121° Southeast  Level FlightAware Approximate
11:07PM 31.0256 -112.8259 121° Southeast  Level FlightAware Approximate
11:08PM 30.9566 -112.6909 121° Southeast  Level FlightAware Approximate
11:09PM 30.8874 -112.5561 121° Southeast  Level FlightAware Approximate
11:10PM 30.8170 -112.4224 122° Southeast  Level FlightAware Approximate
11:11PM 30.7450 -112.2898 122° Southeast  Level FlightAware Approximate
11:12PM 30.6729 -112.1575 122° Southeast  Level FlightAware Approximate
11:13PM 30.6006 -112.0253 122° Southeast  Level FlightAware Approximate
11:14PM 30.5282 -111.8934 122° Southeast  Level FlightAware Approximate
11:15PM 30.4557 -111.7616 123° Southeast  Level FlightAware Approximate
11:16PM 30.3831 -111.6301 123° Southeast  Level FlightAware Approximate
11:17PM 30.3103 -111.4987 123° Southeast  Level FlightAware Approximate
11:18PM 30.2374 -111.3675 123° Southeast  Level FlightAware Approximate
11:19PM 30.1643 -111.2365 123° Southeast  Level FlightAware Approximate
11:20PM 30.0911 -111.1057 123° Southeast  Level FlightAware Approximate
11:21PM 30.0178 -110.9752 123° Southeast  Level FlightAware Approximate
11:22PM 29.9444 -110.8447 123° Southeast  Level FlightAware Approximate
11:23PM 29.8708 -110.7145 123° Southeast  Level FlightAware Approximate
11:24PM 29.7971 -110.5845 123° Southeast  Level FlightAware Approximate
11:25PM 29.7233 -110.4547 123° Southeast  Level FlightAware Approximate
11:26PM 29.6494 -110.3251 123° Southeast  Level FlightAware Approximate
11:27PM 29.5753 -110.1956 123° Southeast  Level FlightAware Approximate
11:28PM 29.5011 -110.0664 123° Southeast  Level FlightAware Approximate
11:29PM 29.4268 -109.9373 123° Southeast  Level FlightAware Approximate
11:30PM 29.3524 -109.8085 124° Southeast  Level FlightAware Approximate
11:31PM 29.2778 -109.6798 124° Southeast  Level FlightAware Approximate
11:32PM 29.2031 -109.5513 124° Southeast  Level FlightAware Approximate
11:33PM 29.1283 -109.4230 124° Southeast  Level FlightAware Approximate
11:34PM 29.0534 -109.2949 124° Southeast  Level FlightAware Approximate
11:35PM 28.9783 -109.1669 124° Southeast  Level FlightAware Approximate
11:36PM 28.9031 -109.0392 124° Southeast  Level FlightAware Approximate
11:37PM 28.8278 -108.9116 124° Southeast  Level FlightAware Approximate
11:38PM 28.7524 -108.7842 124° Southeast  Level FlightAware Approximate
11:39PM 28.6769 -108.6570 124° Southeast  Level FlightAware Approximate
11:40PM 28.6012 -108.5300 124° Southeast  Level FlightAware Approximate
11:41PM 28.5266 -108.4023 123° Southeast  Level FlightAware Approximate
11:42PM 28.4521 -108.2745 124° Southeast  Level FlightAware Approximate
11:43PM 28.3776 -108.1469 124° Southeast  Level FlightAware Approximate
11:44PM 28.3029 -108.0195 124° Southeast  Level FlightAware Approximate
11:45PM 28.2281 -107.8923 124° Southeast  Level FlightAware Approximate
11:46PM 28.1532 -107.7653 124° Southeast  Level FlightAware Approximate
11:47PM 28.0782 -107.6384 124° Southeast  Level FlightAware Approximate
11:48PM 28.0031 -107.5117 124° Southeast  Level FlightAware Approximate
11:49PM 27.9278 -107.3852 124° Southeast  Level FlightAware Approximate
11:50PM 27.8524 -107.2588 124° Southeast  Level FlightAware Approximate
11:51PM 27.7769 -107.1327 124° Southeast  Level FlightAware Approximate
11:52PM 27.7013 -107.0067 124° Southeast  Level FlightAware Approximate
11:53PM 27.6256 -106.8809 124° Southeast  Level FlightAware Approximate
11:54PM 27.5498 -106.7552 124° Southeast  Level FlightAware Approximate
11:55PM 27.4739 -106.6298 124° Southeast  Level FlightAware Approximate
11:56PM 27.3978 -106.5045 124° Southeast  Level FlightAware Approximate
11:57PM 27.3216 -106.3793 124° Southeast  Level FlightAware Approximate
11:58PM 27.2453 -106.2544 124° Southeast  Level FlightAware Approximate
11:59PM 27.1690 -106.1296 125° Southeast  Level FlightAware Approximate
12:00AM 27.0925 -106.0050 125° Southeast  Level FlightAware Approximate
12:01AM 27.0159 -105.8806 125° Southeast  Level FlightAware Approximate
12:02AM 26.9391 -105.7563 125° Southeast  Level FlightAware Approximate
12:03AM 26.8623 -105.6322 125° Southeast  Level FlightAware Approximate
12:04AM 26.7854 -105.5083 125° Southeast  Level FlightAware Approximate
12:05AM 26.7083 -105.3845 125° Southeast  Level FlightAware Approximate
12:06AM 26.6312 -105.2609 125° Southeast  Level FlightAware Approximate
12:07AM 26.5539 -105.1375 125° Southeast  Level FlightAware Approximate
12:08AM 26.4766 -105.0142 125° Southeast  Level FlightAware Approximate
12:09AM 26.3991 -104.8911 125° Southeast  Level FlightAware Approximate
12:10AM 26.3215 -104.7682 125° Southeast  Level FlightAware Approximate
12:11AM 26.2439 -104.6454 125° Southeast  Level FlightAware Approximate
12:12AM 26.1660 -104.5229 126° Southeast  Level FlightAware Approximate
12:13AM 26.0875 -104.4009 126° Southeast  Level FlightAware Approximate
12:14AM 26.0090 -104.2790 126° Southeast  Level FlightAware Approximate
12:15AM 25.9304 -104.1573 126° Southeast  Level FlightAware Approximate
12:16AM 25.8517 -104.0358 126° Southeast  Level FlightAware Approximate
12:17AM 25.7729 -103.9144 126° Southeast  Level FlightAware Approximate
12:18AM 25.6940 -103.7932 126° Southeast  Level FlightAware Approximate
12:19AM 25.6150 -103.6722 126° Southeast  Level FlightAware Approximate
12:20AM 25.5359 -103.5513 126° Southeast  Level FlightAware Approximate
12:21AM 25.4567 -103.4306 126° Southeast  Level FlightAware Approximate
12:22AM 25.3773 -103.3100 126° Southeast  Level FlightAware Approximate
12:23AM 25.2979 -103.1896 126° Southeast  Level FlightAware Approximate
12:24AM 25.2184 -103.0693 126° Southeast  Level FlightAware Approximate
12:25AM 25.1391 -102.9490 126° Southeast  Level FlightAware Approximate
12:26AM 25.0597 -102.8288 126° Southeast  Level FlightAware Approximate
12:27AM 24.9802 -102.7088 126° Southeast  Level FlightAware Approximate
12:28AM 24.9006 -102.5889 126° Southeast  Level FlightAware Approximate
12:29AM 24.8209 -102.4692 126° Southeast  Level FlightAware Approximate
12:30AM 24.7411 -102.3496 126° Southeast  Level FlightAware Approximate
12:31AM 24.6612 -102.2302 126° Southeast  Level FlightAware Approximate
12:32AM 24.5812 -102.1110 126° Southeast  Level FlightAware Approximate
12:33AM 24.5011 -101.9919 126° Southeast  Level FlightAware Approximate
12:34AM 24.4209 -101.8730 126° Southeast  Level FlightAware Approximate
12:35AM 24.3446 -101.7511 124° Southeast  Level FlightAware Approximate
12:36AM 24.2684 -101.6291 124° Southeast  Level FlightAware Approximate
12:37AM 24.1922 -101.5073 124° Southeast  Level FlightAware Approximate
12:38AM 24.1060 -101.3942 133° Southeast  Level FlightAware Approximate
12:39AM 24.0149 -101.2856 133° Southeast  Level FlightAware Approximate
12:40AM 23.9237 -101.1770 133° Southeast  Level FlightAware Approximate
12:41AM 23.8324 -101.0687 133° Southeast  Level FlightAware Approximate
12:42AM 23.7417 -100.9599 132° Southeast  Level FlightAware Approximate
12:43AM 23.6509 -100.8511 132° Southeast  Level FlightAware Approximate
12:44AM 23.5603 -100.7423 132° Southeast  Level FlightAware Approximate
12:45AM 23.4684 -100.6350 137° Southeast  Level FlightAware Approximate
12:46AM 23.3876 -100.5176 127° Southeast  Level FlightAware Approximate
12:47AM 23.3071 -100.3999 127° Southeast  Level FlightAware Approximate
12:48AM 23.2259 -100.2829 128° Southeast  Level FlightAware Approximate
12:49AM 23.1433 -100.1671 128° Southeast  Level FlightAware Approximate
12:50AM 23.0606 -100.0515 128° Southeast  Level FlightAware Approximate
12:51AM 22.9778 -99.9360 128° Southeast  Level FlightAware Approximate
12:52AM 22.8950 -99.8207 128° Southeast  Level FlightAware Approximate
12:53AM 22.8120 -99.7055 128° Southeast  Level FlightAware Approximate
12:54AM 22.7290 -99.5904 128° Southeast  Level FlightAware Approximate
12:55AM 22.6458 -99.4755 128° Southeast  Level FlightAware Approximate
12:56AM 22.5627 -99.3607 128° Southeast  Level FlightAware Approximate
12:57AM 22.4794 -99.2461 128° Southeast  Level FlightAware Approximate
12:58AM 22.3960 -99.1316 128° Southeast  Level FlightAware Approximate
12:59AM 22.3126 -99.0172 128° Southeast  Level FlightAware Approximate
01:00AM 22.2293 -98.9027 128° Southeast  Level FlightAware Approximate
01:01AM 22.1461 -98.7883 128° Southeast  Level FlightAware Approximate
01:02AM 22.0629 -98.6740 128° Southeast  Level FlightAware Approximate
01:03AM 21.9788 -98.5605 129° Southeast  Level FlightAware Approximate
01:04AM 21.8941 -98.4475 129° Southeast  Level FlightAware Approximate
01:05AM 21.8094 -98.3346 129° Southeast  Level FlightAware Approximate
01:06AM 21.7248 -98.2217 129° Southeast  Level FlightAware Approximate
01:07AM 21.6401 -98.1090 129° Southeast  Level FlightAware Approximate
01:08AM 21.5570 -97.9949 128° Southeast  Level FlightAware Approximate
01:09AM 21.4737 -97.8811 128° Southeast  Level FlightAware Approximate
01:10AM 21.3900 -97.7677 128° Southeast  Level FlightAware Approximate
01:11AM 21.3062 -97.6545 128° Southeast  Level FlightAware Approximate
01:12AM 21.2223 -97.5414 128° Southeast  Level FlightAware Approximate
01:13AM 21.1383 -97.4284 129° Southeast  Level FlightAware Approximate
01:14AM 21.0543 -97.3155 129° Southeast  Level FlightAware Approximate
01:15AM 20.9701 -97.2028 129° Southeast  Level FlightAware Approximate
01:16AM 20.8859 -97.0902 129° Southeast  Level FlightAware Approximate
01:17AM 20.8017 -96.9777 129° Southeast  Level FlightAware Approximate
01:18AM 20.7173 -96.8654 129° Southeast  Level FlightAware Approximate
01:19AM 20.6329 -96.7532 129° Southeast  Level FlightAware Approximate
01:20AM 20.5484 -96.6411 129° Southeast  Level FlightAware Approximate
01:21AM 20.4639 -96.5291 129° Southeast  Level FlightAware Approximate
01:22AM 20.3789 -96.4175 129° Southeast  Level FlightAware Approximate
01:23AM 20.2935 -96.3064 129° Southeast  Level FlightAware Approximate
01:24AM 20.2081 -96.1954 129° Southeast  Level FlightAware Approximate
01:25AM 20.1225 -96.0845 129° Southeast  Level FlightAware Approximate
01:26AM 20.0369 -95.9737 129° Southeast  Level FlightAware Approximate
01:27AM 19.9512 -95.8631 129° Southeast  Level FlightAware Approximate
01:28AM 19.8655 -95.7526 130° Southeast  Level FlightAware Approximate
01:29AM 19.7797 -95.6422 130° Southeast  Level FlightAware Approximate
01:30AM 19.6938 -95.5319 130° Southeast  Level FlightAware Approximate
01:31AM 19.6078 -95.4217 130° Southeast  Level FlightAware Approximate
01:32AM 19.5218 -95.3117 130° Southeast  Level FlightAware Approximate
01:33AM 19.4358 -95.2018 130° Southeast  Level FlightAware Approximate
01:34AM 19.3496 -95.0919 130° Southeast  Level FlightAware Approximate
01:35AM 19.2639 -94.9818 129° Southeast  Level FlightAware Approximate
01:36AM 19.1784 -94.8716 129° Southeast  Level FlightAware Approximate
01:37AM 19.0928 -94.7614 129° Southeast  Level FlightAware Approximate
01:38AM 19.0072 -94.6514 129° Southeast  Level FlightAware Approximate
01:39AM 18.9214 -94.5415 129° Southeast  Level FlightAware Approximate
01:40AM 18.8356 -94.4317 130° Southeast  Level FlightAware Approximate
01:41AM 18.7495 -94.3223 130° Southeast  Level FlightAware Approximate
01:42AM 18.6634 -94.2129 130° Southeast  Level FlightAware Approximate
01:43AM 18.5772 -94.1037 130° Southeast  Level FlightAware Approximate
01:44AM 18.4909 -93.9945 130° Southeast  Level FlightAware Approximate
01:45AM 18.4046 -93.8855 130° Southeast  Level FlightAware Approximate
01:46AM 18.3182 -93.7766 130° Southeast  Level FlightAware Approximate
01:47AM 18.2317 -93.6678 130° Southeast  Level FlightAware Approximate
01:48AM 18.1452 -93.5591 130° Southeast  Level FlightAware Approximate
01:49AM 18.0586 -93.4505 130° Southeast  Level FlightAware Approximate
01:50AM 17.9720 -93.3420 130° Southeast  Level FlightAware Approximate
01:51AM 17.8853 -93.2336 130° Southeast  Level FlightAware Approximate
01:52AM 17.7985 -93.1254 130° Southeast  Level FlightAware Approximate
01:53AM 17.7117 -93.0172 130° Southeast  Level FlightAware Approximate
01:54AM 17.6248 -92.9091 130° Southeast  Level FlightAware Approximate
01:55AM 17.5379 -92.8012 130° Southeast  Level FlightAware Approximate
01:56AM 17.4509 -92.6933 130° Southeast  Level FlightAware Approximate
01:57AM 17.3638 -92.5856 130° Southeast  Level FlightAware Approximate
01:58AM 17.2767 -92.4779 130° Southeast  Level FlightAware Approximate
01:59AM 17.1895 -92.3704 130° Southeast  Level FlightAware Approximate
02:00AM 17.1023 -92.2629 130° Southeast  Level FlightAware Approximate
02:01AM 17.0150 -92.1556 130° Southeast  Level FlightAware Approximate
02:02AM 16.9277 -92.0484 130° Southeast  Level FlightAware Approximate
02:03AM 16.8403 -91.9412 130° Southeast  Level FlightAware Approximate
02:04AM 16.7528 -91.8342 130° Southeast  Level FlightAware Approximate
02:05AM 16.6653 -91.7272 130° Southeast  Level FlightAware Approximate
02:06AM 16.5777 -91.6204 131° Southeast  Level FlightAware Approximate
02:07AM 16.4901 -91.5136 131° Southeast  Level FlightAware Approximate
02:08AM 16.4024 -91.4070 131° Southeast  Level FlightAware Approximate
02:09AM 16.3147 -91.3004 131° Southeast  Level FlightAware Approximate
02:10AM 16.2269 -91.1939 131° Southeast  Level FlightAware Approximate
02:11AM 16.1391 -91.0876 131° Southeast  Level FlightAware Approximate
02:12AM 16.0511 -90.9814 131° Southeast  Level FlightAware Approximate
02:13AM 15.9627 -90.8756 131° Southeast  Level FlightAware Approximate
02:14AM 15.8743 -90.7699 131° Southeast  Level FlightAware Approximate
02:15AM 15.7858 -90.6643 131° Southeast  Level FlightAware Approximate
02:16AM 15.6973 -90.5588 131° Southeast  Level FlightAware Approximate
02:17AM 15.6087 -90.4534 131° Southeast  Level FlightAware Approximate
02:18AM 15.5201 -90.3481 131° Southeast  Level FlightAware Approximate
02:19AM 15.4314 -90.2428 131° Southeast  Level FlightAware Approximate
02:20AM 15.3427 -90.1377 131° Southeast  Level FlightAware Approximate
02:21AM 15.2539 -90.0326 131° Southeast  Level FlightAware Approximate
02:22AM 15.1651 -89.9277 131° Southeast  Level FlightAware Approximate
02:23AM 15.0762 -89.8228 131° Southeast  Level FlightAware Approximate
02:24AM 14.9873 -89.7180 131° Southeast  Level FlightAware Approximate
02:25AM 14.8983 -89.6133 131° Southeast  Level FlightAware Approximate
02:26AM 14.8093 -89.5087 131° Southeast  Level FlightAware Approximate
02:27AM 14.7202 -89.4041 131° Southeast  Level FlightAware Approximate
02:28AM 14.6311 -89.2997 131° Southeast  Level FlightAware Approximate
02:29AM 14.5419 -89.1953 131° Southeast  Level FlightAware Approximate
02:30AM 14.4527 -89.0911 131° Southeast  Level FlightAware Approximate
02:31AM 14.3635 -88.9869 131° Southeast  Level FlightAware Approximate
02:32AM 14.2741 -88.8828 132° Southeast  Level FlightAware Approximate
02:33AM 14.1848 -88.7787 132° Southeast  Level FlightAware Approximate
02:34AM 14.0954 -88.6748 132° Southeast  Level FlightAware Approximate
02:35AM 14.0060 -88.5709 131° Southeast  Level FlightAware Approximate
02:36AM 13.9167 -88.4669 131° Southeast  Level FlightAware Approximate
02:37AM 13.8274 -88.3630 132° Southeast  Level FlightAware Approximate
02:38AM 13.7381 -88.2592 132° Southeast  Level FlightAware Approximate
02:39AM 13.6487 -88.1555 132° Southeast  Level FlightAware Approximate
02:40AM 13.5592 -88.0518 132° Southeast  Level FlightAware Approximate
02:41AM 13.4697 -87.9483 132° Southeast  Level FlightAware Approximate
02:42AM 13.3802 -87.8448 132° Southeast  Level FlightAware Approximate
02:43AM 13.2906 -87.7413 132° Southeast  Level FlightAware Approximate
02:44AM 13.2010 -87.6380 132° Southeast  Level FlightAware Approximate
02:45AM 13.1114 -87.5347 132° Southeast  Level FlightAware Approximate
02:46AM 13.0217 -87.4315 132° Southeast  Level FlightAware Approximate
02:47AM 12.9319 -87.3284 132° Southeast  Level FlightAware Approximate
02:48AM 12.8421 -87.2254 132° Southeast  Level FlightAware Approximate
02:49AM 12.7523 -87.1224 132° Southeast  Level FlightAware Approximate
02:50AM 12.6625 -87.0195 132° Southeast  Level FlightAware Approximate
02:51AM 12.5726 -86.9167 132° Southeast  Level FlightAware Approximate
02:52AM 12.4826 -86.8139 132° Southeast  Level FlightAware Approximate
02:53AM 12.3927 -86.7112 132° Southeast  Level FlightAware Approximate
02:54AM 12.3027 -86.6086 132° Southeast  Level FlightAware Approximate
02:55AM 12.2126 -86.5061 132° Southeast  Level FlightAware Approximate
02:56AM 12.1225 -86.4036 132° Southeast  Level FlightAware Approximate
02:57AM 12.0324 -86.3012 132° Southeast  Level FlightAware Approximate
02:58AM 11.9423 -86.1988 132° Southeast  Level FlightAware Approximate
02:59AM 11.8522 -86.0964 132° Southeast  Level FlightAware Approximate
03:00AM 11.7621 -85.9941 132° Southeast  Level FlightAware Approximate
03:01AM 11.6719 -85.8919 132° Southeast  Level FlightAware Approximate
03:02AM 11.5817 -85.7897 132° Southeast  Level FlightAware Approximate
03:03AM 11.4915 -85.6876 132° Southeast  Level FlightAware Approximate
03:04AM 11.4012 -85.5856 132° Southeast  Level FlightAware Approximate
03:05AM 11.3109 -85.4836 132° Southeast  Level FlightAware Approximate
03:06AM 11.2205 -85.3817 132° Southeast  Level FlightAware Approximate
03:07AM 11.1302 -85.2799 132° Southeast  Level FlightAware Approximate
03:08AM 11.0398 -85.1781 132° Southeast  Level FlightAware Approximate
03:09AM 10.9493 -85.0764 132° Southeast  Level FlightAware Approximate
03:10AM 10.8588 -84.9747 132° Southeast  Level FlightAware Approximate
03:11AM 10.7683 -84.8732 132° Southeast  Level FlightAware Approximate
03:12AM 10.6778 -84.7716 132° Southeast  Level FlightAware Approximate
03:13AM 10.5872 -84.6702 132° Southeast  Level FlightAware Approximate
03:14AM 10.4966 -84.5687 132° Southeast  Level FlightAware Approximate
03:15AM 10.4061 -84.4672 132° Southeast  Level FlightAware Approximate
03:16AM 10.3157 -84.3656 132° Southeast  Level FlightAware Approximate
03:17AM 10.2254 -84.2641 132° Southeast  Level FlightAware Approximate
03:18AM 10.1350 -84.1626 132° Southeast  Level FlightAware Approximate
03:19AM 10.0445 -84.0612 132° Southeast  Level FlightAware Approximate
03:20AM 9.9541 -83.9598 132° Southeast  Level FlightAware Approximate
03:21AM 9.8636 -83.8585 132° Southeast  Level FlightAware Approximate
03:22AM 9.7730 -83.7572 132° Southeast  Level FlightAware Approximate
03:23AM 9.6825 -83.6561 132° Southeast  Level FlightAware Approximate
03:24AM 9.5919 -83.5549 132° Southeast  Level FlightAware Approximate
03:25AM 9.5013 -83.4538 132° Southeast  Level FlightAware Approximate
03:26AM 9.4106 -83.3528 132° Southeast  Level FlightAware Approximate
03:27AM 9.3199 -83.2518 132° Southeast  Level FlightAware Approximate
03:28AM 9.2292 -83.1508 132° Southeast  Level FlightAware Approximate
03:29AM 9.1385 -83.0500 132° Southeast  Level FlightAware Approximate
03:30AM 9.0478 -82.9491 132° Southeast  Level FlightAware Approximate
03:31AM 8.9570 -82.8484 132° Southeast  Level FlightAware Approximate
03:32AM 8.8661 -82.7477 133° Southeast  Level FlightAware Approximate
03:33AM 8.7748 -82.6474 133° Southeast  Level FlightAware Approximate
03:34AM 8.6836 -82.5471 133° Southeast  Level FlightAware Approximate
03:35AM 8.5923 -82.4469 133° Southeast  Level FlightAware Approximate
03:36AM 8.5010 -82.3467 133° Southeast  Level FlightAware Approximate
03:37AM 8.4096 -82.2466 133° Southeast  Level FlightAware Approximate
03:38AM 8.3182 -82.1466 133° Southeast  Level FlightAware Approximate
03:39AM 8.2269 -82.0465 133° Southeast  Level FlightAware Approximate
03:40AM 8.1354 -81.9465 133° Southeast  Level FlightAware Approximate
03:41AM 8.0440 -81.8466 133° Southeast  Level FlightAware Approximate
03:42AM 7.9525 -81.7467 133° Southeast  Level FlightAware Approximate
03:43AM 7.8610 -81.6469 133° Southeast  Level FlightAware Approximate
03:44AM 7.7694 -81.5472 133° Southeast  Level FlightAware Approximate
03:45AM 7.6777 -81.4476 133° Southeast  Level FlightAware Approximate
03:46AM 7.5859 -81.3481 133° Southeast  Level FlightAware Approximate
03:47AM 7.4942 -81.2486 133° Southeast  Level FlightAware Approximate
03:48AM 7.4024 -81.1491 133° Southeast  Level FlightAware Approximate
03:49AM 7.3106 -81.0497 133° Southeast  Level FlightAware Approximate
03:50AM 7.2188 -80.9504 133° Southeast  Level FlightAware Approximate
03:51AM 7.1269 -80.8510 133° Southeast  Level FlightAware Approximate
03:52AM 7.0350 -80.7517 133° Southeast  Level FlightAware Approximate
03:53AM 6.9431 -80.6525 133° Southeast  Level FlightAware Approximate
03:54AM 6.8512 -80.5533 133° Southeast  Level FlightAware Approximate
03:55AM 6.7593 -80.4541 133° Southeast  Level FlightAware Approximate
03:56AM 6.6673 -80.3550 133° Southeast  Level FlightAware Approximate
03:57AM 6.5753 -80.2559 133° Southeast  Level FlightAware Approximate
03:58AM 6.4833 -80.1568 133° Southeast  Level FlightAware Approximate
03:59AM 6.3913 -80.0578 133° Southeast  Level FlightAware Approximate
04:00AM 6.2993 -79.9588 133° Southeast  Level FlightAware Approximate
04:01AM 6.2073 -79.8598 133° Southeast  Level FlightAware Approximate
04:02AM 6.1152 -79.7609 133° Southeast  Level FlightAware Approximate
04:03AM 6.0231 -79.6620 133° Southeast  Level FlightAware Approximate
04:04AM 5.9310 -79.5631 133° Southeast  Level FlightAware Approximate
04:05AM 5.8389 -79.4643 133° Southeast  Level FlightAware Approximate
04:06AM 5.7467 -79.3655 133° Southeast  Level FlightAware Approximate
04:07AM 5.6543 -79.2670 133° Southeast  Level FlightAware Approximate
04:08AM 5.5617 -79.1687 133° Southeast  Level FlightAware Approximate
04:09AM 5.4691 -79.0704 133° Southeast  Level FlightAware Approximate
04:10AM 5.3765 -78.9721 133° Southeast  Level FlightAware Approximate
04:11AM 5.2839 -78.8738 133° Southeast  Level FlightAware Approximate
04:12AM 5.1912 -78.7756 133° Southeast  Level FlightAware Approximate
04:13AM 5.0986 -78.6774 133° Southeast  Level FlightAware Approximate
04:14AM 5.0059 -78.5792 133° Southeast  Level FlightAware Approximate
04:15AM 4.9132 -78.4811 133° Southeast  Level FlightAware Approximate
04:16AM 4.8205 -78.3830 133° Southeast  Level FlightAware Approximate
04:17AM 4.7278 -78.2849 133° Southeast  Level FlightAware Approximate
04:18AM 4.6351 -78.1868 133° Southeast  Level FlightAware Approximate
04:19AM 4.5424 -78.0888 133° Southeast  Level FlightAware Approximate
04:20AM 4.4496 -77.9908 134° Southeast  Level FlightAware Approximate
04:21AM 4.3568 -77.8928 134° Southeast  Level FlightAware Approximate
04:22AM 4.2641 -77.7948 134° Southeast  Level FlightAware Approximate
04:23AM 4.1713 -77.6969 134° Southeast  Level FlightAware Approximate
04:24AM 4.0785 -77.5990 134° Southeast  Level FlightAware Approximate
04:25AM 3.9857 -77.5011 134° Southeast  Level FlightAware Approximate
04:26AM 3.8928 -77.4032 134° Southeast  Level FlightAware Approximate
04:27AM 3.8000 -77.3054 134° Southeast  Level FlightAware Approximate
04:28AM 3.7071 -77.2075 134° Southeast  Level FlightAware Approximate
04:29AM 3.6143 -77.1097 134° Southeast  Level FlightAware Approximate
04:30AM 3.5214 -77.0119 134° Southeast  Level FlightAware Approximate
04:31AM 3.4285 -76.9141 134° Southeast  Level FlightAware Approximate
04:32AM 3.3356 -76.8164 134° Southeast  Level FlightAware Approximate
04:33AM 3.2427 -76.7187 134° Southeast  Level FlightAware Approximate
04:34AM 3.1498 -76.6210 134° Southeast  Level FlightAware Approximate
04:35AM 3.0569 -76.5233 134° Southeast  Level FlightAware Approximate
04:36AM 2.9640 -76.4256 134° Southeast  Level FlightAware Approximate
04:37AM 2.8710 -76.3279 134° Southeast  Level FlightAware Approximate
04:38AM 2.7781 -76.2303 134° Southeast  Level FlightAware Approximate
04:39AM 2.6851 -76.1327 134° Southeast  Level FlightAware Approximate
04:40AM 2.5922 -76.0350 134° Southeast  Level FlightAware Approximate
04:41AM 2.4992 -75.9374 134° Southeast  Level FlightAware Approximate
04:42AM 2.4062 -75.8398 134° Southeast  Level FlightAware Approximate
04:43AM 2.3133 -75.7423 134° Southeast  Level FlightAware Approximate
04:44AM 2.2203 -75.6447 134° Southeast  Level FlightAware Approximate
04:45AM 2.1273 -75.5472 134° Southeast  Level FlightAware Approximate
04:46AM 2.0343 -75.4496 134° Southeast  Level FlightAware Approximate
04:47AM 1.9412 -75.3521 134° Southeast  Level FlightAware Approximate
04:48AM 1.8482 -75.2546 134° Southeast  Level FlightAware Approximate
04:49AM 1.7552 -75.1571 134° Southeast  Level FlightAware Approximate
04:50AM 1.6621 -75.0597 134° Southeast  Level FlightAware Approximate
04:51AM 1.5690 -74.9623 134° Southeast  Level FlightAware Approximate
04:52AM 1.4758 -74.8650 134° Southeast  Level FlightAware Approximate
04:53AM 1.3826 -74.7677 134° Southeast  Level FlightAware Approximate
04:54AM 1.2894 -74.6703 134° Southeast  Level FlightAware Approximate
04:55AM 1.1962 -74.5730 134° Southeast  Level FlightAware Approximate
04:56AM 1.1030 -74.4757 134° Southeast  Level FlightAware Approximate
04:57AM 1.0098 -74.3784 134° Southeast  Level FlightAware Approximate
04:58AM 0.9166 -74.2811 134° Southeast  Level FlightAware Approximate
04:59AM 0.8234 -74.1839 134° Southeast  Level FlightAware Approximate
05:00AM 0.7302 -74.0866 134° Southeast  Level FlightAware Approximate
05:01AM 0.6370 -73.9893 134° Southeast  Level FlightAware Approximate
05:02AM 0.5438 -73.8920 134° Southeast  Level FlightAware Approximate
05:03AM 0.4505 -73.7947 134° Southeast  Level FlightAware Approximate
05:04AM 0.3573 -73.6975 134° Southeast  Level FlightAware Approximate
05:05AM 0.2641 -73.6002 134° Southeast  Level FlightAware Approximate
05:06AM 0.1709 -73.5029 134° Southeast  Level FlightAware Approximate
05:07AM 0.0777 -73.4057 134° Southeast  Level FlightAware Approximate
05:08AM -0.0155 -73.3084 134° Southeast  Level FlightAware Approximate
05:09AM -0.1088 -73.2111 134° Southeast  Level FlightAware Approximate
05:10AM -0.2020 -73.1139 134° Southeast  Level FlightAware Approximate
05:11AM -0.2952 -73.0166 134° Southeast  Level FlightAware Approximate
05:12AM -0.3884 -72.9193 134° Southeast  Level FlightAware Approximate
05:13AM -0.4816 -72.8220 134° Southeast  Level FlightAware Approximate
05:14AM -0.5748 -72.7248 134° Southeast  Level FlightAware Approximate
05:15AM -0.6680 -72.6275 134° Southeast  Level FlightAware Approximate
05:16AM -0.7613 -72.5302 134° Southeast  Level FlightAware Approximate
05:17AM -0.8545 -72.4329 134° Southeast  Level FlightAware Approximate
05:18AM -0.9477 -72.3356 134° Southeast  Level FlightAware Approximate
05:19AM -1.0409 -72.2383 134° Southeast  Level FlightAware Approximate
05:20AM -1.1341 -72.1410 134° Southeast  Level FlightAware Approximate
05:21AM -1.2273 -72.0437 134° Southeast  Level FlightAware Approximate
05:22AM -1.3204 -71.9464 134° Southeast  Level FlightAware Approximate
05:23AM -1.4136 -71.8491 134° Southeast  Level FlightAware Approximate
05:24AM -1.5068 -71.7517 134° Southeast  Level FlightAware Approximate
05:25AM -1.6000 -71.6544 134° Southeast  Level FlightAware Approximate
05:26AM -1.6932 -71.5571 134° Southeast  Level FlightAware Approximate
05:27AM -1.7863 -71.4597 134° Southeast  Level FlightAware Approximate
05:28AM -1.8795 -71.3623 134° Southeast  Level FlightAware Approximate
05:29AM -1.9727 -71.2650 134° Southeast  Level FlightAware Approximate
05:30AM -2.0658 -71.1676 134° Southeast  Level FlightAware Approximate
05:31AM -2.1590 -71.0702 134° Southeast  Level FlightAware Approximate
05:32AM -2.2521 -70.9727 134° Southeast  Level FlightAware Approximate
05:33AM -2.3452 -70.8753 134° Southeast  Level FlightAware Approximate
05:34AM -2.4384 -70.7779 134° Southeast  Level FlightAware Approximate
05:35AM -2.5315 -70.6804 134° Southeast  Level FlightAware Approximate
05:36AM -2.6246 -70.5830 134° Southeast  Level FlightAware Approximate
05:37AM -2.7177 -70.4855 134° Southeast  Level FlightAware Approximate
05:38AM -2.8108 -70.3880 134° Southeast  Level FlightAware Approximate
05:39AM -2.9039 -70.2905 134° Southeast  Level FlightAware Approximate
05:40AM -2.9970 -70.1930 134° Southeast  Level FlightAware Approximate
05:41AM -3.0900 -70.0954 134° Southeast  Level FlightAware Approximate
05:42AM -3.1831 -69.9979 134° Southeast  Level FlightAware Approximate
05:43AM -3.2762 -69.9003 134° Southeast  Level FlightAware Approximate
05:44AM -3.3692 -69.8027 134° Southeast  Level FlightAware Approximate
05:45AM -3.4622 -69.7051 134° Southeast  Level FlightAware Approximate
05:46AM -3.5553 -69.6075 134° Southeast  Level FlightAware Approximate
05:47AM -3.6483 -69.5098 134° Southeast  Level FlightAware Approximate
05:48AM -3.7413 -69.4121 134° Southeast  Level FlightAware Approximate
05:49AM -3.8343 -69.3145 134° Southeast  Level FlightAware Approximate
05:50AM -3.9273 -69.2167 134° Southeast  Level FlightAware Approximate
05:51AM -4.0202 -69.1190 134° Southeast  Level FlightAware Approximate
05:52AM -4.1132 -69.0212 134° Southeast  Level FlightAware Approximate
05:53AM -4.2062 -68.9235 134° Southeast  Level FlightAware Approximate
05:54AM -4.2991 -68.8257 134° Southeast  Level FlightAware Approximate
05:55AM -4.3920 -68.7278 134° Southeast  Level FlightAware Approximate
05:56AM -4.4849 -68.6300 134° Southeast  Level FlightAware Approximate
05:57AM -4.5778 -68.5321 134° Southeast  Level FlightAware Approximate
05:58AM -4.6707 -68.4342 134° Southeast  Level FlightAware Approximate
05:59AM -4.7636 -68.3363 134° Southeast  Level FlightAware Approximate
06:00AM -4.8564 -68.2383 134° Southeast  Level FlightAware Approximate
06:01AM -4.9493 -68.1403 134° Southeast  Level FlightAware Approximate
06:02AM -5.0421 -68.0423 134° Southeast  Level FlightAware Approximate
06:03AM -5.1349 -67.9443 134° Southeast  Level FlightAware Approximate
06:04AM -5.2277 -67.8462 134° Southeast  Level FlightAware Approximate
06:05AM -5.3205 -67.7481 134° Southeast  Level FlightAware Approximate
06:06AM -5.4133 -67.6500 134° Southeast  Level FlightAware Approximate
06:07AM -5.5060 -67.5518 134° Southeast  Level FlightAware Approximate
06:08AM -5.5988 -67.4536 134° Southeast  Level FlightAware Approximate
06:09AM -5.6915 -67.3554 133° Southeast  Level FlightAware Approximate
06:10AM -5.7842 -67.2572 133° Southeast  Level FlightAware Approximate
06:11AM -5.8769 -67.1589 133° Southeast  Level FlightAware Approximate
06:12AM -5.9695 -67.0606 133° Southeast  Level FlightAware Approximate
06:13AM -6.0622 -66.9622 133° Southeast  Level FlightAware Approximate
06:14AM -6.1548 -66.8638 133° Southeast  Level FlightAware Approximate
06:15AM -6.2474 -66.7654 133° Southeast  Level FlightAware Approximate
06:16AM -6.3400 -66.6670 133° Southeast  Level FlightAware Approximate
06:17AM -6.4326 -66.5685 133° Southeast  Level FlightAware Approximate
06:18AM -6.5252 -66.4700 133° Southeast  Level FlightAware Approximate
06:19AM -6.6177 -66.3714 133° Southeast  Level FlightAware Approximate
06:20AM -6.7102 -66.2728 133° Southeast  Level FlightAware Approximate
06:21AM -6.8027 -66.1742 133° Southeast  Level FlightAware Approximate
06:22AM -6.8952 -66.0755 133° Southeast  Level FlightAware Approximate
06:23AM -6.9877 -65.9768 133° Southeast  Level FlightAware Approximate
06:24AM -7.0801 -65.8781 133° Southeast  Level FlightAware Approximate
06:25AM -7.1725 -65.7793 133° Southeast  Level FlightAware Approximate
06:26AM -7.2649 -65.6804 133° Southeast  Level FlightAware Approximate
06:27AM -7.3573 -65.5816 133° Southeast  Level FlightAware Approximate
06:28AM -7.4497 -65.4827 133° Southeast  Level FlightAware Approximate
06:29AM -7.5420 -65.3837 133° Southeast  Level FlightAware Approximate
06:30AM -7.6343 -65.2847 133° Southeast  Level FlightAware Approximate
06:31AM -7.7266 -65.1857 133° Southeast  Level FlightAware Approximate
06:32AM -7.8189 -65.0866 133° Southeast  Level FlightAware Approximate
06:33AM -7.9111 -64.9875 133° Southeast  Level FlightAware Approximate
06:34AM -8.0033 -64.8883 133° Southeast  Level FlightAware Approximate
06:35AM -8.0955 -64.7891 133° Southeast  Level FlightAware Approximate
06:36AM -8.1877 -64.6898 133° Southeast  Level FlightAware Approximate
06:37AM -8.2799 -64.5905 133° Southeast  Level FlightAware Approximate
06:38AM -8.3720 -64.4912 133° Southeast  Level FlightAware Approximate
06:39AM -8.4641 -64.3918 133° Southeast  Level FlightAware Approximate
06:40AM -8.5561 -64.2924 133° Southeast  Level FlightAware Approximate
06:41AM -8.6482 -64.1929 133° Southeast  Level FlightAware Approximate
06:42AM -8.7402 -64.0933 133° Southeast  Level FlightAware Approximate
06:43AM -8.8322 -63.9937 133° Southeast  Level FlightAware Approximate
06:44AM -8.9242 -63.8941 133° Southeast  Level FlightAware Approximate
06:45AM -9.0161 -63.7944 133° Southeast  Level FlightAware Approximate
06:46AM -9.1080 -63.6947 133° Southeast  Level FlightAware Approximate
06:47AM -9.1999 -63.5949 133° Southeast  Level FlightAware Approximate
06:48AM -9.2918 -63.4950 133° Southeast  Level FlightAware Approximate
06:49AM -9.3836 -63.3951 133° Southeast  Level FlightAware Approximate
06:50AM -9.4754 -63.2952 133° Southeast  Level FlightAware Approximate
06:51AM -9.5672 -63.1952 133° Southeast  Level FlightAware Approximate
06:52AM -9.6590 -63.0951 133° Southeast  Level FlightAware Approximate
06:53AM -9.7507 -62.9950 133° Southeast  Level FlightAware Approximate
06:54AM -9.8424 -62.8948 133° Southeast  Level FlightAware Approximate
06:55AM -9.9340 -62.7946 133° Southeast  Level FlightAware Approximate
06:56AM -10.0257 -62.6943 133° Southeast  Level FlightAware Approximate
06:57AM -10.1173 -62.5940 133° Southeast  Level FlightAware Approximate
06:58AM -10.2088 -62.4936 133° Southeast  Level FlightAware Approximate
06:59AM -10.3004 -62.3932 133° Southeast  Level FlightAware Approximate
07:00AM -10.3919 -62.2926 133° Southeast  Level FlightAware Approximate
07:01AM -10.4834 -62.1921 133° Southeast  Level FlightAware Approximate
07:02AM -10.5748 -62.0914 133° Southeast  Level FlightAware Approximate
07:03AM -10.6662 -61.9908 133° Southeast  Level FlightAware Approximate
07:04AM -10.7576 -61.8900 133° Southeast  Level FlightAware Approximate
07:05AM -10.8490 -61.7892 133° Southeast  Level FlightAware Approximate
07:06AM -10.9403 -61.6883 133° Southeast  Level FlightAware Approximate
07:07AM -11.0316 -61.5874 133° Southeast  Level FlightAware Approximate
07:08AM -11.1228 -61.4864 133° Southeast  Level FlightAware Approximate
07:09AM -11.2140 -61.3853 133° Southeast  Level FlightAware Approximate
07:10AM -11.3052 -61.2842 133° Southeast  Level FlightAware Approximate
07:11AM -11.3964 -61.1830 133° Southeast  Level FlightAware Approximate
07:12AM -11.4875 -61.0818 133° Southeast  Level FlightAware Approximate
07:13AM -11.5786 -60.9805 133° Southeast  Level FlightAware Approximate
07:14AM -11.6696 -60.8791 133° Southeast  Level FlightAware Approximate
07:15AM -11.7606 -60.7776 133° Southeast  Level FlightAware Approximate
07:16AM -11.8516 -60.6761 132° Southeast  Level FlightAware Approximate
07:17AM -11.9425 -60.5745 132° Southeast  Level FlightAware Approximate
07:18AM -12.0334 -60.4729 132° Southeast  Level FlightAware Approximate
07:19AM -12.1243 -60.3712 132° Southeast  Level FlightAware Approximate
07:20AM -12.2151 -60.2694 132° Southeast  Level FlightAware Approximate
07:21AM -12.3059 -60.1675 132° Southeast  Level FlightAware Approximate
07:22AM -12.3966 -60.0656 132° Southeast  Level FlightAware Approximate
07:23AM -12.4874 -59.9636 132° Southeast  Level FlightAware Approximate
07:24AM -12.5780 -59.8615 132° Southeast  Level FlightAware Approximate
07:25AM -12.6687 -59.7594 132° Southeast  Level FlightAware Approximate
07:26AM -12.7593 -59.6572 132° Southeast  Level FlightAware Approximate
07:27AM -12.8498 -59.5549 132° Southeast  Level FlightAware Approximate
07:28AM -12.9403 -59.4525 132° Southeast  Level FlightAware Approximate
07:29AM -13.0308 -59.3501 132° Southeast  Level FlightAware Approximate
07:30AM -13.1213 -59.2476 132° Southeast  Level FlightAware Approximate
07:31AM -13.2117 -59.1450 132° Southeast  Level FlightAware Approximate
07:32AM -13.3020 -59.0423 132° Southeast  Level FlightAware Approximate
07:33AM -13.3923 -58.9396 132° Southeast  Level FlightAware Approximate
07:34AM -13.4826 -58.8367 132° Southeast  Level FlightAware Approximate
07:35AM -13.5728 -58.7338 132° Southeast  Level FlightAware Approximate
07:36AM -13.6630 -58.6309 132° Southeast  Level FlightAware Approximate
07:37AM -13.7532 -58.5278 132° Southeast  Level FlightAware Approximate
07:38AM -13.8433 -58.4247 132° Southeast  Level FlightAware Approximate
07:39AM -13.9333 -58.3215 132° Southeast  Level FlightAware Approximate
07:40AM -14.0234 -58.2182 132° Southeast  Level FlightAware Approximate
07:41AM -14.1133 -58.1148 132° Southeast  Level FlightAware Approximate
07:42AM -14.2033 -58.0113 132° Southeast  Level FlightAware Approximate
07:43AM -14.2931 -57.9078 132° Southeast  Level FlightAware Approximate
07:44AM -14.3830 -57.8042 132° Southeast  Level FlightAware Approximate
07:45AM -14.4728 -57.7005 132° Southeast  Level FlightAware Approximate
07:46AM -14.5625 -57.5967 132° Southeast  Level FlightAware Approximate
07:47AM -14.6522 -57.4928 132° Southeast  Level FlightAware Approximate
07:48AM -14.7419 -57.3889 132° Southeast  Level FlightAware Approximate
07:49AM -14.8315 -57.2848 132° Southeast  Level FlightAware Approximate
07:50AM -14.9211 -57.1807 132° Southeast  Level FlightAware Approximate
07:51AM -15.0106 -57.0765 132° Southeast  Level FlightAware Approximate
07:52AM -15.1000 -56.9722 132° Southeast  Level FlightAware Approximate
07:53AM -15.1895 -56.8678 132° Southeast  Level FlightAware Approximate
07:54AM -15.2788 -56.7633 132° Southeast  Level FlightAware Approximate
07:55AM -15.3682 -56.6587 132° Southeast  Level FlightAware Approximate
07:56AM -15.4574 -56.5541 132° Southeast  Level FlightAware Approximate
07:57AM -15.5467 -56.4493 131° Southeast  Level FlightAware Approximate
07:58AM -15.6359 -56.3445 131° Southeast  Level FlightAware Approximate
07:59AM -15.7250 -56.2396 131° Southeast  Level FlightAware Approximate
08:00AM -15.8141 -56.1345 131° Southeast  Level FlightAware Approximate
08:01AM -15.9031 -56.0294 131° Southeast  Level FlightAware Approximate
08:02AM -15.9921 -55.9242 131° Southeast  Level FlightAware Approximate
08:03AM -16.0810 -55.8189 131° Southeast  Level FlightAware Approximate
08:04AM -16.1699 -55.7135 131° Southeast  Level FlightAware Approximate
08:05AM -16.2587 -55.6080 131° Southeast  Level FlightAware Approximate
08:06AM -16.3475 -55.5024 131° Southeast  Level FlightAware Approximate
08:07AM -16.4362 -55.3968 131° Southeast  Level FlightAware Approximate
08:08AM -16.5249 -55.2910 131° Southeast  Level FlightAware Approximate
08:09AM -16.6135 -55.1851 131° Southeast  Level FlightAware Approximate
08:10AM -16.7020 -55.0791 131° Southeast  Level FlightAware Approximate
08:11AM -16.7905 -54.9730 131° Southeast  Level FlightAware Approximate
08:12AM -16.8790 -54.8669 131° Southeast  Level FlightAware Approximate
08:13AM -16.9674 -54.7606 131° Southeast  Level FlightAware Approximate
08:14AM -17.0557 -54.6542 131° Southeast  Level FlightAware Approximate
08:15AM -17.1440 -54.5478 131° Southeast  Level FlightAware Approximate
08:16AM -17.2322 -54.4412 131° Southeast  Level FlightAware Approximate
08:17AM -17.3204 -54.3345 131° Southeast  Level FlightAware Approximate
08:18AM -17.4085 -54.2277 131° Southeast  Level FlightAware Approximate
08:19AM -17.4965 -54.1209 131° Southeast  Level FlightAware Approximate
08:20AM -17.5846 -54.0139 131° Southeast  Level FlightAware Approximate
08:21AM -17.6725 -53.9068 131° Southeast  Level FlightAware Approximate
08:22AM -17.7604 -53.7996 131° Southeast  Level FlightAware Approximate
08:23AM -17.8482 -53.6923 131° Southeast  Level FlightAware Approximate
08:24AM -17.9360 -53.5849 131° Southeast  Level FlightAware Approximate
08:25AM -18.0237 -53.4774 131° Southeast  Level FlightAware Approximate
08:26AM -18.1113 -53.3698 131° Southeast  Level FlightAware Approximate
08:27AM -18.1989 -53.2620 131° Southeast  Level FlightAware Approximate
08:28AM -18.2865 -53.1542 131° Southeast  Level FlightAware Approximate
08:29AM -18.3739 -53.0463 131° Southeast  Level FlightAware Approximate
08:30AM -18.4613 -52.9382 130° Southeast  Level FlightAware Approximate
08:31AM -18.5487 -52.8301 130° Southeast  Level FlightAware Approximate
08:32AM -18.6360 -52.7218 130° Southeast  Level FlightAware Approximate
08:33AM -18.7232 -52.6134 130° Southeast  Level FlightAware Approximate
08:34AM -18.8104 -52.5049 130° Southeast  Level FlightAware Approximate
08:35AM -18.8975 -52.3963 130° Southeast  Level FlightAware Approximate
08:36AM -18.9845 -52.2876 130° Southeast  Level FlightAware Approximate
08:37AM -19.0715 -52.1787 130° Southeast  Level FlightAware Approximate
08:38AM -19.1584 -52.0698 130° Southeast  Level FlightAware Approximate
08:39AM -19.2452 -51.9607 130° Southeast  Level FlightAware Approximate
08:40AM -19.3320 -51.8516 130° Southeast  Level FlightAware Approximate
08:41AM -19.4187 -51.7422 130° Southeast  Level FlightAware Approximate
08:42AM -19.5054 -51.6328 130° Southeast  Level FlightAware Approximate
08:43AM -19.5919 -51.5233 130° Southeast  Level FlightAware Approximate
08:44AM -19.6784 -51.4137 130° Southeast  Level FlightAware Approximate
08:45AM -19.7649 -51.3039 130° Southeast  Level FlightAware Approximate
08:46AM -19.8513 -51.1940 130° Southeast  Level FlightAware Approximate
08:47AM -19.9376 -51.0840 130° Southeast  Level FlightAware Approximate
08:48AM -20.0238 -50.9739 130° Southeast  Level FlightAware Approximate
08:49AM -20.1100 -50.8636 130° Southeast  Level FlightAware Approximate
08:50AM -20.1961 -50.7532 130° Southeast  Level FlightAware Approximate
08:51AM -20.2822 -50.6427 130° Southeast  Level FlightAware Approximate
08:52AM -20.3682 -50.5321 130° Southeast  Level FlightAware Approximate
08:53AM -20.4551 -50.4201 130° Southeast  Level FlightAware Approximate
08:54AM -20.5419 -50.3079 130° Southeast  Level FlightAware Approximate
08:55AM -20.6287 -50.1957 130° Southeast  Level FlightAware Approximate
08:56AM -20.7153 -50.0832 130° Southeast  Level FlightAware Approximate
08:57AM -20.8020 -49.9707 129° Southeast  Level FlightAware Approximate
08:58AM -20.8885 -49.8580 129° Southeast  Level FlightAware Approximate
08:59AM -20.9750 -49.7452 129° Southeast  Level FlightAware Approximate
09:00AM -21.0614 -49.6323 129° Southeast  Level FlightAware Approximate
09:01AM -21.1477 -49.5192 129° Southeast  Level FlightAware Approximate
09:02AM -21.2339 -49.4061 129° Southeast  Level FlightAware Approximate
09:03AM -21.3201 -49.2927 129° Southeast  Level FlightAware Approximate
09:04AM -21.4062 -49.1793 129° Southeast  Level FlightAware Approximate
09:05AM -21.4922 -49.0657 129° Southeast  Level FlightAware Approximate
09:06AM -21.5782 -48.9519 129° Southeast  Level FlightAware Approximate
09:07AM -21.6640 -48.8381 129° Southeast  Level FlightAware Approximate
09:08AM -21.7498 -48.7241 129° Southeast  Level FlightAware Approximate
09:09AM -21.8355 -48.6099 129° Southeast  Level FlightAware Approximate
09:10AM -21.9212 -48.4957 129° Southeast  Level FlightAware Approximate
09:11AM -22.0067 -48.3812 129° Southeast  Level FlightAware Approximate
09:12AM -22.0922 -48.2667 129° Southeast  Level FlightAware Approximate
09:13AM -22.1794 -48.1539 137° Southeast  Level FlightAware Approximate
09:14AM -22.2676 -48.0424 128° Southeast  Level FlightAware Approximate
09:15AM -22.3519 -47.9266 128° Southeast  Level FlightAware Approximate
09:16AM -22.4364 -47.8110 128° Southeast  Level FlightAware Approximate
09:17AM -22.5212 -47.6955 128° Southeast  Level FlightAware Approximate
09:18AM -22.6071 -47.5809 130° Southeast  Level FlightAware Approximate
09:19AM -22.6943 -47.4674 130° Southeast  Level FlightAware Approximate
09:20AM -22.7792 -47.3518 128° Southeast  Level FlightAware Approximate
09:21AM -22.8621 -47.2344 127° Southeast  Level FlightAware Approximate
09:22AM -22.9454 -47.1173 129° Southeast  Level FlightAware Approximate
09:23AM -23.0314 -47.0025 129° Southeast  Level FlightAware Approximate
09:24AM -23.1160 -46.8864 128° Southeast  Level FlightAware Approximate
09:25AM -23.2049 -46.7747 122° Southeast  Level FlightAware Approximate
09:26AM -23.2789 -46.6503 129° Southeast  Level FlightAware Approximate